sensor_id;sensor_type;location;lat;lon;timestamp;temperature;humidity
23207;DHT22;11773;52.570;13.052;2023-06-22T00:01:54;22.80;99.90
23207;DHT22;11773;52.570;13.052;2023-06-22T00:04:24;22.80;99.90
23207;DHT22;11773;52.570;13.052;2023-06-22T00:06:53;22.90;99.90
23207;DHT22;11773;52.570;13.052;2023-06-22T00:09:23;22.80;99.90
23207;DHT22;11773;52.570;13.052;2023-06-22T00:11:52;22.80;99.90
23207;DHT22;11773;52.570;13.052;2023-06-22T00:14:22;22.80;99.90
23207;DHT22;11773;52.570;13.052;2023-06-22T00:16:52;22.80;99.90
23207;DHT22;11773;52.570;13.052;2023-06-22T00:19:26;22.70;99.90
23207;DHT22;11773;52.570;13.052;2023-06-22T00:21:56;22.70;99.90
23207;DHT22;11773;52.570;13.052;2023-06-22T00:24:27;22.70;99.90
23207;DHT22;11773;52.570;13.052;2023-06-22T00:26:57;22.70;99.90
23207;DHT22;11773;52.570;13.052;2023-06-22T00:29:26;22.60;99.90
23207;DHT22;11773;52.570;13.052;2023-06-22T00:31:56;22.50;99.90
23207;DHT22;11773;52.570;13.052;2023-06-22T00:34:25;22.50;99.90
23207;DHT22;11773;52.570;13.052;2023-06-22T00:36:55;22.50;99.90
23207;DHT22;11773;52.570;13.052;2023-06-22T00:39:25;22.40;99.90
23207;DHT22;11773;52.570;13.052;2023-06-22T00:41:55;22.30;99.90
23207;DHT22;11773;52.570;13.052;2023-06-22T00:44:25;22.30;99.90
23207;DHT22;11773;52.570;13.052;2023-06-22T00:46:54;22.20;99.90
23207;DHT22;11773;52.570;13.052;2023-06-22T00:49:24;22.30;99.90
23207;DHT22;11773;52.570;13.052;2023-06-22T00:51:54;22.30;99.90
23207;DHT22;11773;52.570;13.052;2023-06-22T00:54:25;22.20;99.90
23207;DHT22;11773;52.570;13.052;2023-06-22T00:56:57;22.20;99.90
23207;DHT22;11773;52.570;13.052;2023-06-22T00:59:27;22.20;99.90
23207;DHT22;11773;52.570;13.052;2023-06-22T01:01:57;22.30;99.90
23207;DHT22;11773;52.570;13.052;2023-06-22T01:04:34;22.20;99.90
23207;DHT22;11773;52.570;13.052;2023-06-22T01:13:01;22.10;99.90
23207;DHT22;11773;52.570;13.052;2023-06-22T01:15:52;22.00;99.90
23207;DHT22;11773;52.570;13.052;2023-06-22T01:18:40;21.80;99.90
23207;DHT22;11773;52.570;13.052;2023-06-22T01:21:14;21.70;99.90
23207;DHT22;11773;52.570;13.052;2023-06-22T01:29:35;21.80;99.90
23207;DHT22;11773;52.570;13.052;2023-06-22T01:32:07;21.80;99.90
23207;DHT22;11773;52.570;13.052;2023-06-22T01:34:39;21.90;99.90
23207;DHT22;11773;52.570;13.052;2023-06-22T01:37:10;21.80;99.90
23207;DHT22;11773;52.570;13.052;2023-06-22T01:39:41;21.70;99.90
23207;DHT22;11773;52.570;13.052;2023-06-22T01:42:11;21.80;99.90
23207;DHT22;11773;52.570;13.052;2023-06-22T01:44:41;21.90;99.90
23207;DHT22;11773;52.570;13.052;2023-06-22T01:47:12;21.80;99.90
23207;DHT22;11773;52.570;13.052;2023-06-22T01:49:42;21.60;99.90
23207;DHT22;11773;52.570;13.052;2023-06-22T01:52:11;21.50;99.90
23207;DHT22;11773;52.570;13.052;2023-06-22T01:54:41;21.40;99.90
23207;DHT22;11773;52.570;13.052;2023-06-22T01:57:11;21.50;99.90
23207;DHT22;11773;52.570;13.052;2023-06-22T01:59:53;21.50;99.90
23207;DHT22;11773;52.570;13.052;2023-06-22T02:02:56;21.30;99.90
23207;DHT22;11773;52.570;13.052;2023-06-22T02:05:24;21.30;99.90
23207;DHT22;11773;52.570;13.052;2023-06-22T02:08:20;21.50;99.90
23207;DHT22;11773;52.570;13.052;2023-06-22T02:10:53;21.50;99.90
23207;DHT22;11773;52.570;13.052;2023-06-22T02:13:25;21.40;99.90
23207;DHT22;11773;52.570;13.052;2023-06-22T02:15:55;21.40;99.90
23207;DHT22;11773;52.570;13.052;2023-06-22T02:18:26;21.50;99.90
23207;DHT22;11773;52.570;13.052;2023-06-22T02:20:55;21.40;99.90
23207;DHT22;11773;52.570;13.052;2023-06-22T02:23:25;21.40;99.90
23207;DHT22;11773;52.570;13.052;2023-06-22T02:25:56;21.40;99.90
23207;DHT22;11773;52.570;13.052;2023-06-22T02:28:26;21.40;99.90
23207;DHT22;11773;52.570;13.052;2023-06-22T02:30:55;21.20;99.90
23207;DHT22;11773;52.570;13.052;2023-06-22T02:33:25;21.00;99.90
23207;DHT22;11773;52.570;13.052;2023-06-22T02:35:55;21.20;99.90
23207;DHT22;11773;52.570;13.052;2023-06-22T02:38:24;21.00;99.90
23207;DHT22;11773;52.570;13.052;2023-06-22T02:40:54;20.80;99.90
23207;DHT22;11773;52.570;13.052;2023-06-22T02:43:23;21.00;99.90
23207;DHT22;11773;52.570;13.052;2023-06-22T02:45:53;21.00;99.90
23207;DHT22;11773;52.570;13.052;2023-06-22T02:48:24;21.10;99.90
23207;DHT22;11773;52.570;13.052;2023-06-22T02:50:53;21.20;99.90
23207;DHT22;11773;52.570;13.052;2023-06-22T02:53:23;21.20;99.90
23207;DHT22;11773;52.570;13.052;2023-06-22T02:55:53;21.10;99.90
23207;DHT22;11773;52.570;13.052;2023-06-22T02:58:22;21.10;99.90
23207;DHT22;11773;52.570;13.052;2023-06-22T03:00:52;21.20;99.90
23207;DHT22;11773;52.570;13.052;2023-06-22T03:03:22;21.10;99.90
23207;DHT22;11773;52.570;13.052;2023-06-22T03:05:53;21.10;99.90
23207;DHT22;11773;52.570;13.052;2023-06-22T03:08:23;21.10;99.90
23207;DHT22;11773;52.570;13.052;2023-06-22T03:10:52;21.00;99.90
23207;DHT22;11773;52.570;13.052;2023-06-22T03:13:22;21.10;99.90
23207;DHT22;11773;52.570;13.052;2023-06-22T03:15:52;21.10;99.90
23207;DHT22;11773;52.570;13.052;2023-06-22T03:18:21;21.10;99.90
23207;DHT22;11773;52.570;13.052;2023-06-22T03:20:51;21.10;99.90
23207;DHT22;11773;52.570;13.052;2023-06-22T03:23:21;21.20;99.90
23207;DHT22;11773;52.570;13.052;2023-06-22T03:25:50;21.20;99.90
23207;DHT22;11773;52.570;13.052;2023-06-22T03:28:20;21.10;99.90
23207;DHT22;11773;52.570;13.052;2023-06-22T03:30:50;21.20;99.90
23207;DHT22;11773;52.570;13.052;2023-06-22T03:33:19;21.20;99.90
23207;DHT22;11773;52.570;13.052;2023-06-22T03:35:50;21.30;99.90
23207;DHT22;11773;52.570;13.052;2023-06-22T03:38:19;21.30;99.90
23207;DHT22;11773;52.570;13.052;2023-06-22T03:40:49;21.30;99.90
23207;DHT22;11773;52.570;13.052;2023-06-22T03:43:19;21.30;99.90
23207;DHT22;11773;52.570;13.052;2023-06-22T03:45:48;21.30;99.90
23207;DHT22;11773;52.570;13.052;2023-06-22T03:48:18;21.30;99.90
23207;DHT22;11773;52.570;13.052;2023-06-22T03:50:48;21.30;99.90
23207;DHT22;11773;52.570;13.052;2023-06-22T03:53:17;21.30;99.90
23207;DHT22;11773;52.570;13.052;2023-06-22T03:55:53;21.30;99.90
23207;DHT22;11773;52.570;13.052;2023-06-22T03:58:23;21.30;99.90
23207;DHT22;11773;52.570;13.052;2023-06-22T04:00:53;21.40;99.90
23207;DHT22;11773;52.570;13.052;2023-06-22T04:03:22;21.40;99.90
23207;DHT22;11773;52.570;13.052;2023-06-22T04:05:52;21.40;99.90
23207;DHT22;11773;52.570;13.052;2023-06-22T04:08:21;21.40;99.90
23207;DHT22;11773;52.570;13.052;2023-06-22T04:10:51;21.40;99.90
23207;DHT22;11773;52.570;13.052;2023-06-22T04:13:21;21.30;99.90
23207;DHT22;11773;52.570;13.052;2023-06-22T04:15:50;21.40;99.90
23207;DHT22;11773;52.570;13.052;2023-06-22T04:18:20;21.40;99.90
23207;DHT22;11773;52.570;13.052;2023-06-22T04:20:49;21.50;99.90
23207;DHT22;11773;52.570;13.052;2023-06-22T04:23:19;21.60;99.90
23207;DHT22;11773;52.570;13.052;2023-06-22T04:25:49;21.60;99.90
23207;DHT22;11773;52.570;13.052;2023-06-22T04:28:19;21.60;99.90
23207;DHT22;11773;52.570;13.052;2023-06-22T04:30:48;21.80;99.90
23207;DHT22;11773;52.570;13.052;2023-06-22T04:33:18;21.80;99.90
23207;DHT22;11773;52.570;13.052;2023-06-22T04:35:48;21.80;99.90
23207;DHT22;11773;52.570;13.052;2023-06-22T04:38:18;21.80;99.90
23207;DHT22;11773;52.570;13.052;2023-06-22T04:40:50;21.90;99.90
23207;DHT22;11773;52.570;13.052;2023-06-22T04:43:21;21.90;99.90
23207;DHT22;11773;52.570;13.052;2023-06-22T04:45:50;22.10;99.90
23207;DHT22;11773;52.570;13.052;2023-06-22T04:48:20;22.10;99.90
23207;DHT22;11773;52.570;13.052;2023-06-22T04:50:50;22.10;99.90
23207;DHT22;11773;52.570;13.052;2023-06-22T04:53:19;22.20;99.90
23207;DHT22;11773;52.570;13.052;2023-06-22T04:55:49;22.30;99.90
23207;DHT22;11773;52.570;13.052;2023-06-22T04:58:20;22.40;99.90
23207;DHT22;11773;52.570;13.052;2023-06-22T05:00:50;22.30;99.90
23207;DHT22;11773;52.570;13.052;2023-06-22T05:03:19;22.40;99.90
23207;DHT22;11773;52.570;13.052;2023-06-22T05:05:49;22.40;99.90
23207;DHT22;11773;52.570;13.052;2023-06-22T05:08:19;22.30;99.90
23207;DHT22;11773;52.570;13.052;2023-06-22T05:10:48;22.40;99.90
23207;DHT22;11773;52.570;13.052;2023-06-22T05:13:20;22.60;99.90
23207;DHT22;11773;52.570;13.052;2023-06-22T05:15:49;22.60;99.90
23207;DHT22;11773;52.570;13.052;2023-06-22T05:18:19;22.70;99.90
23207;DHT22;11773;52.570;13.052;2023-06-22T05:20:50;22.70;99.90
23207;DHT22;11773;52.570;13.052;2023-06-22T05:23:20;22.70;99.90
23207;DHT22;11773;52.570;13.052;2023-06-22T05:25:50;22.60;99.90
23207;DHT22;11773;52.570;13.052;2023-06-22T05:28:20;22.70;99.90
23207;DHT22;11773;52.570;13.052;2023-06-22T05:30:51;22.90;99.90
23207;DHT22;11773;52.570;13.052;2023-06-22T05:33:20;22.90;99.90
23207;DHT22;11773;52.570;13.052;2023-06-22T05:35:50;23.00;99.90
23207;DHT22;11773;52.570;13.052;2023-06-22T05:38:20;23.10;99.90
23207;DHT22;11773;52.570;13.052;2023-06-22T05:40:49;23.10;99.90
23207;DHT22;11773;52.570;13.052;2023-06-22T05:43:19;23.70;99.90
23207;DHT22;11773;52.570;13.052;2023-06-22T05:45:48;23.90;99.90
23207;DHT22;11773;52.570;13.052;2023-06-22T05:48:18;24.30;99.90
23207;DHT22;11773;52.570;13.052;2023-06-22T05:50:47;24.80;99.90
23207;DHT22;11773;52.570;13.052;2023-06-22T05:53:17;25.10;99.90
23207;DHT22;11773;52.570;13.052;2023-06-22T05:55:47;25.40;99.90
23207;DHT22;11773;52.570;13.052;2023-06-22T05:58:16;25.60;99.90
23207;DHT22;11773;52.570;13.052;2023-06-22T06:00:46;25.70;99.90
23207;DHT22;11773;52.570;13.052;2023-06-22T06:03:16;25.80;99.90
23207;DHT22;11773;52.570;13.052;2023-06-22T06:05:45;26.10;99.90
23207;DHT22;11773;52.570;13.052;2023-06-22T06:08:15;26.20;99.90
23207;DHT22;11773;52.570;13.052;2023-06-22T06:10:45;26.40;99.90
23207;DHT22;11773;52.570;13.052;2023-06-22T06:13:14;26.50;99.90
23207;DHT22;11773;52.570;13.052;2023-06-22T06:15:44;26.70;99.90
23207;DHT22;11773;52.570;13.052;2023-06-22T06:18:14;26.90;99.90
23207;DHT22;11773;52.570;13.052;2023-06-22T06:20:43;26.80;99.90
23207;DHT22;11773;52.570;13.052;2023-06-22T06:23:13;26.90;99.90
23207;DHT22;11773;52.570;13.052;2023-06-22T06:25:43;27.10;99.90
23207;DHT22;11773;52.570;13.052;2023-06-22T06:28:12;27.30;99.90
23207;DHT22;11773;52.570;13.052;2023-06-22T06:30:42;27.20;99.90
23207;DHT22;11773;52.570;13.052;2023-06-22T06:33:11;27.40;99.90
23207;DHT22;11773;52.570;13.052;2023-06-22T06:35:41;27.60;99.90
23207;DHT22;11773;52.570;13.052;2023-06-22T06:38:11;27.60;99.90
23207;DHT22;11773;52.570;13.052;2023-06-22T06:40:40;27.90;99.90
23207;DHT22;11773;52.570;13.052;2023-06-22T06:43:10;27.90;99.90
23207;DHT22;11773;52.570;13.052;2023-06-22T06:45:41;28.10;99.90
23207;DHT22;11773;52.570;13.052;2023-06-22T06:48:10;28.00;99.90
23207;DHT22;11773;52.570;13.052;2023-06-22T06:50:41;28.10;99.90
23207;DHT22;11773;52.570;13.052;2023-06-22T06:53:11;28.20;99.90
23207;DHT22;11773;52.570;13.052;2023-06-22T06:55:41;28.30;99.90
23207;DHT22;11773;52.570;13.052;2023-06-22T06:58:12;28.30;99.90
23207;DHT22;11773;52.570;13.052;2023-06-22T07:00:42;28.40;99.90
23207;DHT22;11773;52.570;13.052;2023-06-22T07:03:12;28.30;99.90
23207;DHT22;11773;52.570;13.052;2023-06-22T07:05:42;28.30;99.90
23207;DHT22;11773;52.570;13.052;2023-06-22T07:08:11;28.30;99.90
23207;DHT22;11773;52.570;13.052;2023-06-22T07:10:41;28.30;99.90
23207;DHT22;11773;52.570;13.052;2023-06-22T07:13:10;28.60;99.90
23207;DHT22;11773;52.570;13.052;2023-06-22T07:15:40;28.20;99.90
23207;DHT22;11773;52.570;13.052;2023-06-22T07:18:09;28.20;99.90
23207;DHT22;11773;52.570;13.052;2023-06-22T07:20:39;28.30;99.90
23207;DHT22;11773;52.570;13.052;2023-06-22T07:23:09;28.50;99.90
23207;DHT22;11773;52.570;13.052;2023-06-22T07:25:39;28.40;99.90
23207;DHT22;11773;52.570;13.052;2023-06-22T07:28:08;28.40;99.90
23207;DHT22;11773;52.570;13.052;2023-06-22T07:30:39;28.30;99.90
23207;DHT22;11773;52.570;13.052;2023-06-22T07:33:08;28.60;99.90
23207;DHT22;11773;52.570;13.052;2023-06-22T07:35:38;28.30;99.90
23207;DHT22;11773;52.570;13.052;2023-06-22T07:38:07;28.30;99.90
23207;DHT22;11773;52.570;13.052;2023-06-22T07:40:37;28.40;99.90
23207;DHT22;11773;52.570;13.052;2023-06-22T07:43:07;28.20;99.90
23207;DHT22;11773;52.570;13.052;2023-06-22T07:45:38;28.20;99.90
23207;DHT22;11773;52.570;13.052;2023-06-22T07:48:09;28.50;99.90
23207;DHT22;11773;52.570;13.052;2023-06-22T07:50:39;28.50;99.90
23207;DHT22;11773;52.570;13.052;2023-06-22T07:53:08;28.40;99.90
23207;DHT22;11773;52.570;13.052;2023-06-22T07:55:38;28.30;99.90
23207;DHT22;11773;52.570;13.052;2023-06-22T07:58:07;28.20;99.90
23207;DHT22;11773;52.570;13.052;2023-06-22T08:00:37;28.10;99.90
23207;DHT22;11773;52.570;13.052;2023-06-22T08:03:07;28.10;99.90
23207;DHT22;11773;52.570;13.052;2023-06-22T08:05:36;28.20;99.90
23207;DHT22;11773;52.570;13.052;2023-06-22T08:08:06;28.50;99.90
23207;DHT22;11773;52.570;13.052;2023-06-22T08:10:36;28.40;99.90
23207;DHT22;11773;52.570;13.052;2023-06-22T08:13:05;28.60;99.90
23207;DHT22;11773;52.570;13.052;2023-06-22T08:15:35;28.80;99.90
23207;DHT22;11773;52.570;13.052;2023-06-22T08:18:05;28.90;99.90
23207;DHT22;11773;52.570;13.052;2023-06-22T08:20:35;29.10;99.90
23207;DHT22;11773;52.570;13.052;2023-06-22T08:23:05;29.00;99.90
23207;DHT22;11773;52.570;13.052;2023-06-22T08:25:35;28.90;99.90
23207;DHT22;11773;52.570;13.052;2023-06-22T08:28:05;28.80;99.90
23207;DHT22;11773;52.570;13.052;2023-06-22T08:30:35;28.70;99.90
23207;DHT22;11773;52.570;13.052;2023-06-22T08:33:04;29.00;99.90
23207;DHT22;11773;52.570;13.052;2023-06-22T08:35:34;29.10;99.90
23207;DHT22;11773;52.570;13.052;2023-06-22T08:38:04;28.80;99.90
23207;DHT22;11773;52.570;13.052;2023-06-22T08:40:33;28.50;99.90
23207;DHT22;11773;52.570;13.052;2023-06-22T08:43:03;28.50;99.90
23207;DHT22;11773;52.570;13.052;2023-06-22T08:45:33;28.40;99.90
23207;DHT22;11773;52.570;13.052;2023-06-22T08:48:03;28.70;99.90
23207;DHT22;11773;52.570;13.052;2023-06-22T08:50:32;28.90;99.90
23207;DHT22;11773;52.570;13.052;2023-06-22T08:53:02;28.90;99.90
23207;DHT22;11773;52.570;13.052;2023-06-22T08:55:34;28.80;99.90
23207;DHT22;11773;52.570;13.052;2023-06-22T08:58:03;29.00;99.90
23207;DHT22;11773;52.570;13.052;2023-06-22T09:00:33;28.80;99.90
23207;DHT22;11773;52.570;13.052;2023-06-22T09:03:03;29.10;99.90
23207;DHT22;11773;52.570;13.052;2023-06-22T09:05:33;29.20;99.90
23207;DHT22;11773;52.570;13.052;2023-06-22T09:08:03;29.30;99.90
23207;DHT22;11773;52.570;13.052;2023-06-22T09:10:32;29.50;99.90
23207;DHT22;11773;52.570;13.052;2023-06-22T09:13:02;29.80;99.90
23207;DHT22;11773;52.570;13.052;2023-06-22T09:15:31;29.80;99.90
23207;DHT22;11773;52.570;13.052;2023-06-22T09:18:02;29.60;99.90
23207;DHT22;11773;52.570;13.052;2023-06-22T09:20:32;29.60;99.90
23207;DHT22;11773;52.570;13.052;2023-06-22T09:23:01;30.00;99.90
23207;DHT22;11773;52.570;13.052;2023-06-22T09:25:31;30.00;99.90
23207;DHT22;11773;52.570;13.052;2023-06-22T09:28:01;30.00;99.90
23207;DHT22;11773;52.570;13.052;2023-06-22T09:30:30;29.80;99.90
23207;DHT22;11773;52.570;13.052;2023-06-22T09:33:00;30.00;99.90
23207;DHT22;11773;52.570;13.052;2023-06-22T09:35:30;30.00;99.90
23207;DHT22;11773;52.570;13.052;2023-06-22T09:37:59;30.10;99.90
23207;DHT22;11773;52.570;13.052;2023-06-22T09:40:29;30.20;99.90
23207;DHT22;11773;52.570;13.052;2023-06-22T09:43:00;30.10;99.90
23207;DHT22;11773;52.570;13.052;2023-06-22T09:45:30;30.50;99.90
23207;DHT22;11773;52.570;13.052;2023-06-22T09:48:00;30.70;99.90
23207;DHT22;11773;52.570;13.052;2023-06-22T09:50:30;30.40;99.90
23207;DHT22;11773;52.570;13.052;2023-06-22T09:53:00;30.40;99.90
23207;DHT22;11773;52.570;13.052;2023-06-22T09:55:29;29.90;99.90
23207;DHT22;11773;52.570;13.052;2023-06-22T09:57:59;29.80;99.90
23207;DHT22;11773;52.570;13.052;2023-06-22T10:00:28;30.10;99.90
23207;DHT22;11773;52.570;13.052;2023-06-22T10:02:59;30.00;99.90
23207;DHT22;11773;52.570;13.052;2023-06-22T10:05:29;30.10;99.90
23207;DHT22;11773;52.570;13.052;2023-06-22T10:08:00;30.30;99.90
23207;DHT22;11773;52.570;13.052;2023-06-22T10:10:29;30.40;99.90
23207;DHT22;11773;52.570;13.052;2023-06-22T10:13:03;30.40;99.90
23207;DHT22;11773;52.570;13.052;2023-06-22T10:15:33;30.50;99.90
23207;DHT22;11773;52.570;13.052;2023-06-22T10:18:03;30.10;99.90
23207;DHT22;11773;52.570;13.052;2023-06-22T10:20:33;29.90;99.90
23207;DHT22;11773;52.570;13.052;2023-06-22T10:23:03;30.10;99.90
23207;DHT22;11773;52.570;13.052;2023-06-22T10:25:32;30.50;99.90
23207;DHT22;11773;52.570;13.052;2023-06-22T10:28:02;30.60;99.90
23207;DHT22;11773;52.570;13.052;2023-06-22T10:30:31;30.90;99.90
23207;DHT22;11773;52.570;13.052;2023-06-22T10:33:01;30.80;99.90
23207;DHT22;11773;52.570;13.052;2023-06-22T10:35:31;30.90;99.90
23207;DHT22;11773;52.570;13.052;2023-06-22T10:38:01;31.20;99.90
23207;DHT22;11773;52.570;13.052;2023-06-22T10:40:30;31.40;99.90
23207;DHT22;11773;52.570;13.052;2023-06-22T10:43:00;31.20;99.90
23207;DHT22;11773;52.570;13.052;2023-06-22T10:45:30;31.40;99.90
23207;DHT22;11773;52.570;13.052;2023-06-22T10:48:00;31.50;99.90
23207;DHT22;11773;52.570;13.052;2023-06-22T10:50:30;31.10;99.90
23207;DHT22;11773;52.570;13.052;2023-06-22T10:52:59;31.10;99.90
23207;DHT22;11773;52.570;13.052;2023-06-22T10:55:29;31.30;99.90
23207;DHT22;11773;52.570;13.052;2023-06-22T10:58:00;31.10;99.90
23207;DHT22;11773;52.570;13.052;2023-06-22T11:00:32;31.00;99.90
23207;DHT22;11773;52.570;13.052;2023-06-22T11:03:01;31.20;99.90
23207;DHT22;11773;52.570;13.052;2023-06-22T11:05:31;31.40;99.90
23207;DHT22;11773;52.570;13.052;2023-06-22T11:08:02;31.60;99.90
23207;DHT22;11773;52.570;13.052;2023-06-22T11:10:32;31.30;99.90
23207;DHT22;11773;52.570;13.052;2023-06-22T11:13:02;31.00;99.90
23207;DHT22;11773;52.570;13.052;2023-06-22T11:15:33;31.20;99.90
23207;DHT22;11773;52.570;13.052;2023-06-22T11:18:02;31.20;99.90
23207;DHT22;11773;52.570;13.052;2023-06-22T11:20:33;31.00;99.90
23207;DHT22;11773;52.570;13.052;2023-06-22T11:23:08;31.10;99.90
23207;DHT22;11773;52.570;13.052;2023-06-22T11:25:40;31.00;99.90
23207;DHT22;11773;52.570;13.052;2023-06-22T11:28:10;31.10;99.90
23207;DHT22;11773;52.570;13.052;2023-06-22T11:30:39;31.10;99.90
23207;DHT22;11773;52.570;13.052;2023-06-22T11:33:10;31.20;99.90
23207;DHT22;11773;52.570;13.052;2023-06-22T11:35:39;31.20;99.90
23207;DHT22;11773;52.570;13.052;2023-06-22T11:38:09;31.20;99.90
23207;DHT22;11773;52.570;13.052;2023-06-22T11:40:38;31.20;99.90
23207;DHT22;11773;52.570;13.052;2023-06-22T11:43:08;31.10;99.90
23207;DHT22;11773;52.570;13.052;2023-06-22T11:45:37;30.80;99.90
23207;DHT22;11773;52.570;13.052;2023-06-22T11:48:07;30.90;99.90
23207;DHT22;11773;52.570;13.052;2023-06-22T11:50:37;31.30;99.90
23207;DHT22;11773;52.570;13.052;2023-06-22T11:53:06;31.30;99.90
23207;DHT22;11773;52.570;13.052;2023-06-22T11:55:36;31.00;99.90
23207;DHT22;11773;52.570;13.052;2023-06-22T11:58:05;30.90;99.90
23207;DHT22;11773;52.570;13.052;2023-06-22T12:00:35;31.00;99.90
23207;DHT22;11773;52.570;13.052;2023-06-22T12:03:07;31.00;99.90
23207;DHT22;11773;52.570;13.052;2023-06-22T12:05:37;31.00;99.90
23207;DHT22;11773;52.570;13.052;2023-06-22T12:08:07;31.20;99.90
23207;DHT22;11773;52.570;13.052;2023-06-22T12:10:37;31.20;99.90
23207;DHT22;11773;52.570;13.052;2023-06-22T12:13:06;31.20;99.90
23207;DHT22;11773;52.570;13.052;2023-06-22T12:15:36;31.00;99.90
23207;DHT22;11773;52.570;13.052;2023-06-22T12:18:06;31.00;99.90
23207;DHT22;11773;52.570;13.052;2023-06-22T12:20:37;31.00;99.90
23207;DHT22;11773;52.570;13.052;2023-06-22T12:23:06;31.30;99.90
23207;DHT22;11773;52.570;13.052;2023-06-22T12:25:36;31.20;99.90
23207;DHT22;11773;52.570;13.052;2023-06-22T12:28:05;30.90;99.90
23207;DHT22;11773;52.570;13.052;2023-06-22T12:30:35;31.00;99.90
23207;DHT22;11773;52.570;13.052;2023-06-22T12:33:05;30.90;99.90
23207;DHT22;11773;52.570;13.052;2023-06-22T12:35:34;30.90;99.90
23207;DHT22;11773;52.570;13.052;2023-06-22T12:38:04;30.90;99.90
23207;DHT22;11773;52.570;13.052;2023-06-22T12:40:35;31.10;99.90
23207;DHT22;11773;52.570;13.052;2023-06-22T12:43:05;31.20;99.90
23207;DHT22;11773;52.570;13.052;2023-06-22T12:45:35;31.30;99.90
23207;DHT22;11773;52.570;13.052;2023-06-22T12:48:05;31.00;99.90
23207;DHT22;11773;52.570;13.052;2023-06-22T12:50:36;31.20;99.90
23207;DHT22;11773;52.570;13.052;2023-06-22T12:53:05;31.30;99.90
23207;DHT22;11773;52.570;13.052;2023-06-22T12:55:35;31.20;99.90
23207;DHT22;11773;52.570;13.052;2023-06-22T12:58:05;31.20;99.90
23207;DHT22;11773;52.570;13.052;2023-06-22T13:00:35;31.30;99.90
23207;DHT22;11773;52.570;13.052;2023-06-22T13:03:04;31.40;99.90
23207;DHT22;11773;52.570;13.052;2023-06-22T13:05:34;31.20;99.90
23207;DHT22;11773;52.570;13.052;2023-06-22T13:08:04;31.30;99.90
23207;DHT22;11773;52.570;13.052;2023-06-22T13:10:33;31.40;99.90
23207;DHT22;11773;52.570;13.052;2023-06-22T13:13:03;31.20;99.90
23207;DHT22;11773;52.570;13.052;2023-06-22T13:15:33;31.30;99.90
23207;DHT22;11773;52.570;13.052;2023-06-22T13:18:02;31.30;99.90
23207;DHT22;11773;52.570;13.052;2023-06-22T13:20:33;31.20;99.90
23207;DHT22;11773;52.570;13.052;2023-06-22T13:23:03;31.40;99.90
23207;DHT22;11773;52.570;13.052;2023-06-22T13:25:33;31.60;99.90
23207;DHT22;11773;52.570;13.052;2023-06-22T13:28:02;31.40;99.90
23207;DHT22;11773;52.570;13.052;2023-06-22T13:30:34;31.20;99.90
23207;DHT22;11773;52.570;13.052;2023-06-22T13:33:04;31.20;99.90
23207;DHT22;11773;52.570;13.052;2023-06-22T13:35:33;31.30;99.90
23207;DHT22;11773;52.570;13.052;2023-06-22T13:38:06;31.20;99.90
23207;DHT22;11773;52.570;13.052;2023-06-22T13:40:37;31.00;99.90
23207;DHT22;11773;52.570;13.052;2023-06-22T13:43:06;31.10;99.90
23207;DHT22;11773;52.570;13.052;2023-06-22T13:45:36;31.20;99.90
23207;DHT22;11773;52.570;13.052;2023-06-22T13:48:05;31.10;99.90
23207;DHT22;11773;52.570;13.052;2023-06-22T13:50:35;31.00;99.90
23207;DHT22;11773;52.570;13.052;2023-06-22T13:53:06;31.10;99.90
23207;DHT22;11773;52.570;13.052;2023-06-22T13:55:36;31.30;99.90
23207;DHT22;11773;52.570;13.052;2023-06-22T13:58:06;31.40;99.90
23207;DHT22;11773;52.570;13.052;2023-06-22T14:00:35;31.20;99.90
23207;DHT22;11773;52.570;13.052;2023-06-22T14:03:06;31.20;99.90
23207;DHT22;11773;52.570;13.052;2023-06-22T14:05:35;31.40;99.90
23207;DHT22;11773;52.570;13.052;2023-06-22T14:08:05;31.30;99.90
23207;DHT22;11773;52.570;13.052;2023-06-22T14:10:36;31.30;99.90
23207;DHT22;11773;52.570;13.052;2023-06-22T14:13:06;31.20;99.90
23207;DHT22;11773;52.570;13.052;2023-06-22T14:15:36;31.00;99.90
23207;DHT22;11773;52.570;13.052;2023-06-22T14:18:06;31.20;99.90
23207;DHT22;11773;52.570;13.052;2023-06-22T14:20:35;31.10;99.90
23207;DHT22;11773;52.570;13.052;2023-06-22T14:23:05;31.20;99.90
23207;DHT22;11773;52.570;13.052;2023-06-22T14:25:34;31.10;99.90
23207;DHT22;11773;52.570;13.052;2023-06-22T14:28:09;31.20;99.90
23207;DHT22;11773;52.570;13.052;2023-06-22T14:34:31;31.10;99.90
23207;DHT22;11773;52.570;13.052;2023-06-22T14:37:03;31.00;99.90
23207;DHT22;11773;52.570;13.052;2023-06-22T14:39:34;31.00;99.90
23207;DHT22;11773;52.570;13.052;2023-06-22T14:42:04;31.00;99.90
23207;DHT22;11773;52.570;13.052;2023-06-22T14:44:34;30.90;99.90
23207;DHT22;11773;52.570;13.052;2023-06-22T14:47:03;31.10;99.90
23207;DHT22;11773;52.570;13.052;2023-06-22T14:49:33;31.20;99.90
23207;DHT22;11773;52.570;13.052;2023-06-22T14:52:04;31.20;99.90
23207;DHT22;11773;52.570;13.052;2023-06-22T14:54:34;31.00;99.90
23207;DHT22;11773;52.570;13.052;2023-06-22T14:57:03;31.20;99.90
23207;DHT22;11773;52.570;13.052;2023-06-22T14:59:33;31.20;99.90
23207;DHT22;11773;52.570;13.052;2023-06-22T15:02:03;31.10;99.90
23207;DHT22;11773;52.570;13.052;2023-06-22T15:04:33;31.20;99.90
23207;DHT22;11773;52.570;13.052;2023-06-22T15:07:03;31.30;99.90
23207;DHT22;11773;52.570;13.052;2023-06-22T15:09:32;31.10;99.90
23207;DHT22;11773;52.570;13.052;2023-06-22T15:12:02;31.10;99.90
23207;DHT22;11773;52.570;13.052;2023-06-22T15:14:34;31.00;99.90
23207;DHT22;11773;52.570;13.052;2023-06-22T15:17:03;31.00;99.90
23207;DHT22;11773;52.570;13.052;2023-06-22T15:19:33;31.00;99.90
23207;DHT22;11773;52.570;13.052;2023-06-22T15:22:06;30.90;99.90
23207;DHT22;11773;52.570;13.052;2023-06-22T15:24:36;30.90;99.90
23207;DHT22;11773;52.570;13.052;2023-06-22T15:27:05;30.80;99.90
23207;DHT22;11773;52.570;13.052;2023-06-22T15:29:35;30.90;99.90
23207;DHT22;11773;52.570;13.052;2023-06-22T15:32:06;30.80;99.90
23207;DHT22;11773;52.570;13.052;2023-06-22T15:34:36;30.90;99.90
23207;DHT22;11773;52.570;13.052;2023-06-22T15:37:06;30.70;99.90
23207;DHT22;11773;52.570;13.052;2023-06-22T15:39:35;30.80;99.90
23207;DHT22;11773;52.570;13.052;2023-06-22T15:42:05;30.80;99.90
23207;DHT22;11773;52.570;13.052;2023-06-22T15:44:35;30.80;99.90
23207;DHT22;11773;52.570;13.052;2023-06-22T15:47:04;30.70;99.90
23207;DHT22;11773;52.570;13.052;2023-06-22T15:49:34;30.70;99.90